createdAt,value
2022-12-08T00:01:07.390Z,21.92
2022-12-08T00:03:34.477Z,26.83
2022-12-08T00:06:03.064Z,24.70
2022-12-08T00:08:29.841Z,31.27
2022-12-08T00:10:56.314Z,22.25
2022-12-08T00:13:22.848Z,29.25
2022-12-08T00:15:49.328Z,20.33
2022-12-08T00:18:15.820Z,30.95
2022-12-08T00:20:42.303Z,31.42
2022-12-08T00:23:08.785Z,32.85
2022-12-08T00:25:36.395Z,26.35
2022-12-08T00:28:02.933Z,26.73
2022-12-08T00:30:29.421Z,26.83
2022-12-08T00:32:55.906Z,32.17
2022-12-08T00:35:22.399Z,25.15
2022-12-08T00:37:48.926Z,25.38
2022-12-08T00:40:15.381Z,29.48
2022-12-08T00:42:41.857Z,25.42
2022-12-08T00:45:10.183Z,22.80
2022-12-08T00:47:36.647Z,25.83
2022-12-08T00:50:04.243Z,23.00
2022-12-08T00:52:30.996Z,26.42
2022-12-08T00:54:57.450Z,33.63
2022-12-08T00:57:23.965Z,26.02
2022-12-08T00:59:50.442Z,24.17
2022-12-08T01:02:16.979Z,23.73
2022-12-08T01:04:43.482Z,28.00
2022-12-08T01:07:10.005Z,25.25
2022-12-08T01:09:36.616Z,26.95
2022-12-08T01:12:05.196Z,26.10
2022-12-08T01:14:31.659Z,24.83
2022-12-08T01:16:58.212Z,26.45
2022-12-08T01:19:24.864Z,24.60
2022-12-08T01:21:51.402Z,22.73
2022-12-08T01:24:20.426Z,25.83
2022-12-08T01:26:48.398Z,24.65
2022-12-08T01:29:15.199Z,26.88
2022-12-08T01:31:42.057Z,23.83
2022-12-08T01:34:10.025Z,21.42
2022-12-08T01:36:36.892Z,24.95
2022-12-08T01:39:06.804Z,26.58
2022-12-08T01:41:37.285Z,20.67
2022-12-08T01:44:24.039Z,25.30
2022-12-08T01:46:53.514Z,26.83
2022-12-08T01:49:27.697Z,25.50
2022-12-08T01:52:04.111Z,23.35
2022-12-08T01:54:36.989Z,24.05
2022-12-08T01:57:29.456Z,23.80
2022-12-08T02:00:23.303Z,28.02
2022-12-08T02:02:49.779Z,23.63
2022-12-08T02:05:18.199Z,28.67
2022-12-08T02:07:46.204Z,23.05
2022-12-08T02:10:16.413Z,29.85
2022-12-08T02:12:43.001Z,28.92
2022-12-08T02:15:10.014Z,35.28
2022-12-08T02:17:50.539Z,26.92
2022-12-08T02:20:26.710Z,22.23
2022-12-08T02:23:27.413Z,26.75
2022-12-08T02:26:46.601Z,22.38
2022-12-08T02:29:37.526Z,23.67
2022-12-08T02:32:28.707Z,22.88
2022-12-08T02:35:27.472Z,28.17
2022-12-08T02:38:07.573Z,27.25
2022-12-08T02:40:43.319Z,22.75
2022-12-08T02:43:21.243Z,21.45
2022-12-08T02:46:01.863Z,27.63
2022-12-08T02:48:29.426Z,23.73
2022-12-08T02:50:56.276Z,21.70
2022-12-08T02:53:22.745Z,26.63
2022-12-08T02:56:12.752Z,29.30
2022-12-08T02:59:11.841Z,29.92
2022-12-08T03:02:05.847Z,23.98
2022-12-08T03:04:56.942Z,23.00
2022-12-08T03:07:38.764Z,23.07
2022-12-08T03:12:56.140Z,21.20
2022-12-08T03:15:22.972Z,24.42
2022-12-08T03:17:55.396Z,25.27
2022-12-08T03:20:24.448Z,23.80
2022-12-08T03:22:55.608Z,18.35
2022-12-08T03:25:24.432Z,22.70
2022-12-08T03:27:51.958Z,24.40
2022-12-08T03:30:18.805Z,25.63
2022-12-08T03:32:55.203Z,25.08
2022-12-08T03:35:28.565Z,21.67
2022-12-08T03:38:12.813Z,22.33
2022-12-08T03:40:39.853Z,22.33
2022-12-08T03:43:07.121Z,23.60
2022-12-08T03:45:33.865Z,28.17
2022-12-08T03:48:00.652Z,23.42
2022-12-08T03:50:27.658Z,27.05
2022-12-08T03:52:54.125Z,23.70
2022-12-08T03:55:20.641Z,19.98
2022-12-08T03:57:47.111Z,23.65
2022-12-08T04:00:15.581Z,22.95
2022-12-08T04:02:42.095Z,25.02
2022-12-08T04:05:09.139Z,28.00
2022-12-08T04:07:35.720Z,23.52
2022-12-08T04:10:02.579Z,23.58
2022-12-08T04:12:29.426Z,20.88
2022-12-08T04:14:55.919Z,23.27
2022-12-08T04:17:22.414Z,22.08
2022-12-08T04:19:48.880Z,20.80
2022-12-08T04:22:15.371Z,21.08
2022-12-08T04:24:41.889Z,20.75
2022-12-08T04:27:08.424Z,26.55
2022-12-08T04:29:34.923Z,24.08
2022-12-08T04:32:01.395Z,19.58
2022-12-08T04:34:27.894Z,22.20
2022-12-08T04:36:54.371Z,19.88
2022-12-08T04:39:20.865Z,20.08
2022-12-08T04:41:47.353Z,22.88
2022-12-08T04:44:13.863Z,20.23
2022-12-08T04:46:43.337Z,19.88
2022-12-08T04:49:10.424Z,20.15
2022-12-08T04:51:36.928Z,19.88
2022-12-08T04:54:03.500Z,29.13
2022-12-08T04:56:30.681Z,19.15
2022-12-08T04:58:57.260Z,17.65
2022-12-08T05:01:23.838Z,19.05
2022-12-08T05:03:50.326Z,20.80
2022-12-08T05:06:16.862Z,23.08
2022-12-08T05:08:43.603Z,20.88
2022-12-08T05:11:12.276Z,23.98
2022-12-08T05:13:38.844Z,20.63
2022-12-08T05:16:08.319Z,19.35
2022-12-08T05:18:35.837Z,21.83
2022-12-08T05:21:03.012Z,24.20
2022-12-08T05:23:29.673Z,24.25
2022-12-08T05:25:56.200Z,21.83
2022-12-08T05:31:10.237Z,16.92
2022-12-08T05:33:36.785Z,19.25
2022-12-08T05:36:03.469Z,21.75
2022-12-08T05:38:29.961Z,21.95
2022-12-08T05:40:56.509Z,22.35
2022-12-08T05:43:23.009Z,21.17
2022-12-08T05:45:49.634Z,24.63
2022-12-08T05:48:16.664Z,22.80
2022-12-08T05:50:47.792Z,23.13
2022-12-08T05:53:15.363Z,21.45
2022-12-08T05:55:41.917Z,23.80
2022-12-08T05:58:14.015Z,20.63
2022-12-08T06:00:41.486Z,19.13
2022-12-08T06:03:08.571Z,20.50
2022-12-08T06:05:35.594Z,23.92
2022-12-08T06:08:02.381Z,22.10
2022-12-08T06:10:29.088Z,24.20
2022-12-08T06:12:55.601Z,19.92
2022-12-08T06:15:22.124Z,20.70
2022-12-08T06:17:48.671Z,26.73
2022-12-08T06:20:15.231Z,19.20
2022-12-08T06:22:41.737Z,21.52
2022-12-08T06:25:10.097Z,19.00
2022-12-08T06:27:36.881Z,20.38
2022-12-08T06:30:04.529Z,16.08
2022-12-08T06:32:31.362Z,20.83
2022-12-08T06:34:57.926Z,18.00
2022-12-08T06:37:24.496Z,17.00
2022-12-08T06:39:51.003Z,15.52
2022-12-08T06:42:17.491Z,22.25
2022-12-08T06:44:44.090Z,19.60
2022-12-08T06:47:10.557Z,18.90
2022-12-08T06:49:37.046Z,17.67
2022-12-08T06:52:03.858Z,19.25
2022-12-08T06:54:30.811Z,17.40
2022-12-08T06:56:57.313Z,15.75
2022-12-08T06:59:23.956Z,16.83
2022-12-08T07:01:50.505Z,19.77
2022-12-08T07:04:17.123Z,15.52
2022-12-08T07:06:43.776Z,20.27
2022-12-08T07:09:10.285Z,20.52
2022-12-08T07:11:38.903Z,19.65
2022-12-08T07:14:05.452Z,16.48
2022-12-08T07:16:32.009Z,18.38
2022-12-08T07:18:59.784Z,15.75
2022-12-08T07:21:26.262Z,17.52
2022-12-08T07:23:57.394Z,14.70
2022-12-08T07:28:51.458Z,17.60
2022-12-08T07:31:24.374Z,20.20
2022-12-08T07:33:52.042Z,16.95
2022-12-08T07:36:18.543Z,16.42
2022-12-08T07:38:45.466Z,18.40
2022-12-08T07:41:17.035Z,16.63
2022-12-08T07:43:43.606Z,16.90
2022-12-08T07:46:15.881Z,18.45
2022-12-08T07:48:43.042Z,20.33
2022-12-08T07:51:11.660Z,15.38
2022-12-08T07:53:42.550Z,17.35
2022-12-08T07:56:10.542Z,13.95
2022-12-08T07:58:37.354Z,13.85
2022-12-08T08:01:04.535Z,14.52
2022-12-08T08:03:31.364Z,20.92
2022-12-08T08:06:05.434Z,17.63
2022-12-08T08:08:32.273Z,16.75
2022-12-08T08:10:58.832Z,14.00
2022-12-08T08:13:25.329Z,19.70
2022-12-08T08:15:51.952Z,19.90
2022-12-08T08:18:18.546Z,15.60
2022-12-08T08:20:44.994Z,17.15
2022-12-08T08:23:12.342Z,24.10
2022-12-08T08:25:38.811Z,16.40
2022-12-08T08:28:05.404Z,21.40
2022-12-08T08:30:31.880Z,20.90
2022-12-08T08:33:00.351Z,23.08
2022-12-08T08:35:26.812Z,23.02
2022-12-08T08:37:53.341Z,24.08
2022-12-08T08:40:19.834Z,22.60
2022-12-08T08:42:46.331Z,19.67
2022-12-08T08:45:12.834Z,25.60
2022-12-08T08:47:39.405Z,17.67
2022-12-08T08:50:06.848Z,17.90
2022-12-08T08:52:33.571Z,17.60
2022-12-08T08:55:00.026Z,18.35
2022-12-08T08:57:26.530Z,20.73
2022-12-08T08:59:53.690Z,19.77
2022-12-08T09:02:20.568Z,16.35
2022-12-08T09:04:47.427Z,20.73
2022-12-08T09:07:14.115Z,16.15
2022-12-08T09:09:40.655Z,12.90
2022-12-08T09:12:07.907Z,14.07
2022-12-08T09:14:34.531Z,12.70
2022-12-08T09:17:01.079Z,11.93
2022-12-08T09:19:27.532Z,12.60
2022-12-08T09:21:54.165Z,14.02
2022-12-08T09:24:20.650Z,19.17
2022-12-08T09:26:47.307Z,12.63
2022-12-08T09:29:13.974Z,11.82
2022-12-08T09:31:41.126Z,9.60
2022-12-08T09:34:07.622Z,11.07
2022-12-08T09:36:34.401Z,12.10
2022-12-08T09:39:00.878Z,12.35
2022-12-08T09:41:47.768Z,11.48
2022-12-08T09:44:57.675Z,9.55
2022-12-08T09:47:35.296Z,11.38
2022-12-08T09:50:11.503Z,12.48
2022-12-08T09:52:46.731Z,11.90
2022-12-08T09:55:25.135Z,13.45
2022-12-08T09:58:00.533Z,12.13
2022-12-08T10:00:27.335Z,10.13
2022-12-08T10:02:55.940Z,8.65
2022-12-08T10:05:23.947Z,12.18
2022-12-08T10:08:25.268Z,9.18
2022-12-08T10:10:59.491Z,10.15
2022-12-08T10:13:47.219Z,9.98
2022-12-08T10:16:30.065Z,13.38
2022-12-08T10:19:25.162Z,11.07
2022-12-08T10:21:53.622Z,23.63
2022-12-08T10:24:31.975Z,11.65
2022-12-08T10:26:59.199Z,9.45
2022-12-08T10:29:25.683Z,14.65
2022-12-08T10:31:52.279Z,15.32
2022-12-08T10:34:22.175Z,10.38
2022-12-08T10:36:54.800Z,11.07
2022-12-08T10:39:36.451Z,8.52
2022-12-08T10:42:11.794Z,12.05
2022-12-08T10:45:06.433Z,8.93
2022-12-08T10:47:43.695Z,9.80
2022-12-08T10:50:43.819Z,8.50
2022-12-08T10:53:23.200Z,10.38
2022-12-08T10:56:01.933Z,9.20
2022-12-08T10:58:40.318Z,7.20
2022-12-08T11:01:16.956Z,9.52
2022-12-08T11:03:50.624Z,7.95
2022-12-08T11:06:26.768Z,10.75
2022-12-08T11:08:56.379Z,11.32
2022-12-08T11:11:45.037Z,7.80
2022-12-08T11:14:45.804Z,7.28
2022-12-08T11:17:23.848Z,8.00
2022-12-08T11:19:59.705Z,8.77
2022-12-08T11:22:39.485Z,11.02
2022-12-08T11:25:15.946Z,10.55
2022-12-08T11:27:44.770Z,8.52
2022-12-08T11:30:22.087Z,11.38
2022-12-08T11:32:55.390Z,10.63
2022-12-08T11:35:39.025Z,10.48
2022-12-08T11:38:21.936Z,7.55
2022-12-08T11:40:54.210Z,7.80
2022-12-08T11:46:15.049Z,12.27
2022-12-08T11:49:01.276Z,12.48
2022-12-08T11:51:37.202Z,9.80
2022-12-08T11:54:18.579Z,9.90
2022-12-08T11:56:48.512Z,9.75
2022-12-08T11:59:24.901Z,9.25
2022-12-08T12:01:51.675Z,12.32
2022-12-08T12:04:28.624Z,14.57
2022-12-08T12:07:32.990Z,10.43
2022-12-08T12:10:36.146Z,9.10
2022-12-08T12:13:27.238Z,8.70
2022-12-08T12:16:09.929Z,7.13
2022-12-08T12:18:47.406Z,11.75
2022-12-08T12:21:21.728Z,10.05
2022-12-08T12:24:01.029Z,10.10
2022-12-08T12:26:33.413Z,9.70
2022-12-08T12:29:37.494Z,9.00
2022-12-08T12:32:10.229Z,9.45
2022-12-08T12:34:58.649Z,10.07
2022-12-08T12:37:35.362Z,8.27
2022-12-08T12:40:06.085Z,6.55
2022-12-08T12:43:01.976Z,11.00
2022-12-08T12:45:33.547Z,9.52
2022-12-08T12:50:32.652Z,7.85
2022-12-08T12:53:19.332Z,9.60
2022-12-08T12:55:45.879Z,8.85
2022-12-08T12:58:27.718Z,9.95
2022-12-08T13:01:20.209Z,11.23
2022-12-08T13:04:02.513Z,11.50
2022-12-08T13:06:43.009Z,9.57
2022-12-08T13:09:22.011Z,11.18
2022-12-08T13:11:55.708Z,15.85
2022-12-08T13:14:31.697Z,10.70
2022-12-08T13:17:00.210Z,10.45
2022-12-08T13:19:31.266Z,8.30
2022-12-08T13:21:57.876Z,7.13
2022-12-08T13:24:24.349Z,7.53
2022-12-08T13:27:03.132Z,10.32
2022-12-08T13:29:37.449Z,11.00
2022-12-08T13:32:05.049Z,8.60
2022-12-08T13:34:37.249Z,7.32
2022-12-08T13:37:12.872Z,6.43
2022-12-08T13:39:39.298Z,10.98
2022-12-08T13:42:07.789Z,10.38
2022-12-08T13:47:45.082Z,8.13
2022-12-08T13:53:00.025Z,10.23
2022-12-08T13:57:05.200Z,7.13
2022-12-08T13:59:32.514Z,9.02
2022-12-08T14:02:04.707Z,10.30
2022-12-08T14:04:48.045Z,7.72
2022-12-08T14:07:18.765Z,7.00
2022-12-08T14:09:46.379Z,13.55
2022-12-08T14:12:24.831Z,13.27
2022-12-08T14:15:14.823Z,10.07
2022-12-08T14:17:50.321Z,8.65
2022-12-08T14:20:23.063Z,9.23
2022-12-08T14:22:49.584Z,7.00
2022-12-08T14:25:17.249Z,8.00
2022-12-08T14:27:45.052Z,14.75
2022-12-08T14:30:14.734Z,8.18
2022-12-08T14:32:49.220Z,9.45
2022-12-08T14:35:31.879Z,6.53
2022-12-08T14:38:01.771Z,10.30
2022-12-08T14:40:37.423Z,10.93
2022-12-08T14:43:09.954Z,8.65
2022-12-08T14:45:42.425Z,7.65
2022-12-08T14:48:39.983Z,10.70
2022-12-08T14:51:18.668Z,6.72
2022-12-08T14:53:47.416Z,9.55
2022-12-08T14:56:50.636Z,10.85
2022-12-08T14:59:25.669Z,8.98
2022-12-08T15:02:09.459Z,5.63
2022-12-08T15:04:39.092Z,7.10
2022-12-08T15:07:11.916Z,11.15
2022-12-08T15:09:41.306Z,8.30
2022-12-08T15:12:13.453Z,7.18
2022-12-08T15:15:02.590Z,8.38
2022-12-08T15:17:43.317Z,8.30
2022-12-08T15:20:35.412Z,10.95
2022-12-08T15:23:02.616Z,8.38
2022-12-08T15:25:29.169Z,6.10
2022-12-08T15:27:55.722Z,11.93
2022-12-08T15:30:22.225Z,7.65
2022-12-08T15:32:48.780Z,7.55
2022-12-08T15:35:15.814Z,7.95
2022-12-08T15:37:42.720Z,9.35
2022-12-08T15:40:20.297Z,12.85
2022-12-08T15:42:47.172Z,13.55
2022-12-08T15:45:15.269Z,9.23
2022-12-08T15:47:43.009Z,6.47
2022-12-08T15:50:18.809Z,11.63
2022-12-08T15:52:45.717Z,10.20
2022-12-08T15:55:19.661Z,11.27
2022-12-08T15:58:51.707Z,9.40
2022-12-08T16:00:52.476Z,11.70
2022-12-08T16:04:18.625Z,11.40
2022-12-08T16:07:04.688Z,25.58
2022-12-08T16:09:20.799Z,20.38
2022-12-08T16:12:05.874Z,14.00
2022-12-08T16:17:21.482Z,17.45
2022-12-08T16:19:48.991Z,9.13
2022-12-08T16:25:18.894Z,16.30
2022-12-08T16:30:34.279Z,12.35
2022-12-08T16:33:00.814Z,11.80
2022-12-08T16:35:27.354Z,11.15
2022-12-08T16:37:53.880Z,18.77
2022-12-08T16:40:20.513Z,9.75
2022-12-08T16:42:47.019Z,13.77
2022-12-08T16:45:22.156Z,12.57
2022-12-08T16:47:51.353Z,16.63
2022-12-08T16:50:19.372Z,10.52
2022-12-08T16:52:46.737Z,13.70
2022-12-08T16:55:15.749Z,14.68
2022-12-08T16:57:43.008Z,16.75
2022-12-08T17:00:14.006Z,14.13
2022-12-08T17:02:40.481Z,12.65
2022-12-08T17:05:07.320Z,20.63
2022-12-08T17:07:35.052Z,16.30
2022-12-08T17:10:06.205Z,14.48
2022-12-08T17:12:33.535Z,13.38
2022-12-08T17:15:03.325Z,11.43
2022-12-08T17:17:31.312Z,12.65
2022-12-08T17:19:57.887Z,11.40
2022-12-08T17:22:24.437Z,11.85
2022-12-08T17:24:50.874Z,17.08
2022-12-08T17:27:17.366Z,12.07
2022-12-08T17:29:43.873Z,11.82
2022-12-08T17:32:10.394Z,12.35
2022-12-08T17:34:36.860Z,13.95
2022-12-08T17:37:03.606Z,20.80
2022-12-08T17:39:30.264Z,12.95
2022-12-08T17:41:56.761Z,15.13
2022-12-08T17:44:23.589Z,15.80
2022-12-08T17:46:52.948Z,19.30
2022-12-08T17:49:22.663Z,13.38
2022-12-08T17:51:51.359Z,16.30
2022-12-08T17:54:19.055Z,16.77
2022-12-08T17:56:45.901Z,14.05
2022-12-08T17:59:13.439Z,14.52
2022-12-08T18:01:40.874Z,15.70
2022-12-08T18:04:09.111Z,20.92
2022-12-08T18:06:37.490Z,19.13
2022-12-08T18:09:05.975Z,14.85
2022-12-08T18:11:33.399Z,21.25
2022-12-08T18:14:00.470Z,21.17
2022-12-08T18:16:27.908Z,20.40
2022-12-08T18:18:54.537Z,25.45
2022-12-08T18:21:23.599Z,21.90
2022-12-08T18:23:50.609Z,17.83
2022-12-08T18:26:17.265Z,22.48
2022-12-08T18:28:44.090Z,17.88
2022-12-08T18:31:22.706Z,18.10
2022-12-08T18:33:50.686Z,18.17
2022-12-08T18:36:21.342Z,16.73
2022-12-08T18:38:48.293Z,12.60
2022-12-08T18:41:18.008Z,16.70
2022-12-08T18:43:45.009Z,15.02
2022-12-08T18:46:13.079Z,18.10
2022-12-08T18:48:45.099Z,15.70
2022-12-08T18:51:22.990Z,17.00
2022-12-08T18:53:50.508Z,24.67
2022-12-08T18:56:29.207Z,22.05
2022-12-08T18:59:02.958Z,20.58
2022-12-08T19:01:30.713Z,13.90
2022-12-08T19:04:27.400Z,15.82
2022-12-08T19:06:48.708Z,14.88
2022-12-08T19:09:15.361Z,20.92
2022-12-08T19:11:42.690Z,17.63
2022-12-08T19:14:09.383Z,19.27
2022-12-08T19:16:36.302Z,17.15
2022-12-08T19:19:03.839Z,15.68
2022-12-08T19:21:30.703Z,32.00
2022-12-08T19:23:57.175Z,36.17
2022-12-08T19:26:24.844Z,42.90
2022-12-08T19:28:51.368Z,31.17
2022-12-08T19:31:18.010Z,33.13
2022-12-08T19:33:44.595Z,30.50
2022-12-08T19:36:16.621Z,24.13
2022-12-08T19:38:43.416Z,24.90
2022-12-08T19:41:10.043Z,24.88
2022-12-08T19:43:36.616Z,19.92
2022-12-08T19:46:03.262Z,19.65
2022-12-08T19:48:29.891Z,23.80
2022-12-08T19:50:56.833Z,26.42
2022-12-08T19:53:23.379Z,33.38
2022-12-08T19:55:50.452Z,23.38
2022-12-08T19:58:17.254Z,27.02
2022-12-08T20:00:45.290Z,29.08
2022-12-08T20:03:16.322Z,22.77
2022-12-08T20:05:43.887Z,17.60
2022-12-08T20:08:10.661Z,27.98
2022-12-08T20:10:40.527Z,20.70
2022-12-08T20:13:07.750Z,25.45
2022-12-08T20:15:34.270Z,23.08
2022-12-08T20:18:00.828Z,24.08
2022-12-08T20:20:27.328Z,25.77
2022-12-08T20:22:53.771Z,28.90
2022-12-08T20:25:20.314Z,30.60
2022-12-08T20:27:46.831Z,28.48
2022-12-08T20:30:17.068Z,27.15
2022-12-08T20:32:44.404Z,25.85
2022-12-08T20:35:10.953Z,32.65
2022-12-08T20:37:37.537Z,35.92
2022-12-08T20:40:05.078Z,27.45
2022-12-08T20:42:31.786Z,26.77
2022-12-08T20:44:58.370Z,29.58
2022-12-08T20:47:25.191Z,30.45
2022-12-08T20:49:51.781Z,30.50
2022-12-08T20:52:18.481Z,27.60
2022-12-08T20:54:45.059Z,27.70
2022-12-08T20:57:11.642Z,26.73
2022-12-08T20:59:38.141Z,40.95
2022-12-08T21:02:04.915Z,27.33
2022-12-08T21:04:31.606Z,28.88
2022-12-08T21:06:58.406Z,25.15
2022-12-08T21:09:25.158Z,31.58
2022-12-08T21:11:51.848Z,31.33
2022-12-08T21:14:18.352Z,30.95
2022-12-08T21:16:45.144Z,29.02
2022-12-08T21:19:11.991Z,23.60
2022-12-08T21:21:38.785Z,18.88
2022-12-08T21:24:05.803Z,22.38
2022-12-08T21:26:32.455Z,21.08
2022-12-08T21:28:59.176Z,27.88
2022-12-08T21:31:26.058Z,22.95
2022-12-08T21:33:52.957Z,22.23
2022-12-08T21:36:21.016Z,21.13
2022-12-08T21:38:48.401Z,22.40
2022-12-08T21:41:18.387Z,25.48
2022-12-08T21:43:45.026Z,24.63
2022-12-08T21:46:15.973Z,19.55
2022-12-08T21:48:42.671Z,23.70
2022-12-08T21:51:09.286Z,26.73
2022-12-08T21:53:35.857Z,27.98
2022-12-08T21:56:02.325Z,23.02
2022-12-08T21:58:29.231Z,26.85
2022-12-08T22:00:55.796Z,22.25
2022-12-08T22:03:22.803Z,24.67
2022-12-08T22:05:49.625Z,19.45
2022-12-08T22:08:16.371Z,18.80
2022-12-08T22:10:47.324Z,29.73
2022-12-08T22:13:14.247Z,25.98
2022-12-08T22:15:40.734Z,31.80
2022-12-08T22:18:07.548Z,30.23
2022-12-08T22:20:36.158Z,28.17
2022-12-08T22:23:06.075Z,28.92
2022-12-08T22:25:32.599Z,27.23
2022-12-08T22:27:59.273Z,26.67
2022-12-08T22:30:25.725Z,23.48
2022-12-08T22:32:52.260Z,21.38
2022-12-08T22:35:18.771Z,20.48
2022-12-08T22:37:48.295Z,15.63
2022-12-08T22:40:15.186Z,25.30
2022-12-08T22:42:41.781Z,18.35
2022-12-08T22:45:08.838Z,16.70
2022-12-08T22:47:35.309Z,24.33
2022-12-08T22:50:02.422Z,18.23
2022-12-08T22:52:29.033Z,20.63
2022-12-08T22:54:55.468Z,21.50
2022-12-08T22:57:21.934Z,18.17
2022-12-08T22:59:48.417Z,20.85
2022-12-08T23:02:14.928Z,20.77
2022-12-08T23:04:41.776Z,20.85
2022-12-08T23:07:08.437Z,20.40
2022-12-08T23:09:35.051Z,20.40
2022-12-08T23:12:01.636Z,15.98
2022-12-08T23:14:28.112Z,19.13
2022-12-08T23:16:54.747Z,15.68
2022-12-08T23:19:21.495Z,19.50
2022-12-08T23:21:48.288Z,18.02
2022-12-08T23:24:14.768Z,17.42
2022-12-08T23:26:41.305Z,23.88
2022-12-08T23:29:07.845Z,23.77
2022-12-08T23:31:34.691Z,20.08
2022-12-08T23:34:02.514Z,19.42
2022-12-08T23:36:29.307Z,19.58
2022-12-08T23:38:55.902Z,20.35
2022-12-08T23:41:22.544Z,15.27
2022-12-08T23:43:51.356Z,19.10
2022-12-08T23:46:20.959Z,17.17
2022-12-08T23:48:48.038Z,16.60
2022-12-08T23:51:15.496Z,27.88
2022-12-08T23:53:42.664Z,19.48
2022-12-08T23:56:11.834Z,18.85
2022-12-08T23:58:38.697Z,17.55
